sensor_id;sensor_type;location;lat;lon;timestamp;P1;durP1;ratioP1;P2;durP2;ratioP2
18286;SDS011;9269;50.838;12.094;2024-03-23T00:54:56;9.90;;;8.87;;
18286;SDS011;9269;50.838;12.094;2024-03-23T00:57:24;13.43;;;10.90;;
18286;SDS011;9269;50.838;12.094;2024-03-23T00:59:51;16.00;;;12.80;;
18286;SDS011;9269;50.838;12.094;2024-03-23T01:02:18;23.87;;;16.17;;
18286;SDS011;9269;50.838;12.094;2024-03-23T01:04:46;21.03;;;17.17;;
18286;SDS011;9269;50.838;12.094;2024-03-23T01:07:14;22.60;;;18.17;;
18286;SDS011;9269;50.838;12.094;2024-03-23T01:09:40;28.17;;;22.63;;
18286;SDS011;9269;50.838;12.094;2024-03-23T01:12:09;34.27;;;25.47;;
18286;SDS011;9269;50.838;12.094;2024-03-23T01:14:35;29.73;;;22.60;;
18286;SDS011;9269;50.838;12.094;2024-03-23T01:17:03;32.57;;;24.23;;
18286;SDS011;9269;50.838;12.094;2024-03-23T01:19:29;36.23;;;26.23;;
18286;SDS011;9269;50.838;12.094;2024-03-23T01:21:56;40.83;;;30.37;;
18286;SDS011;9269;50.838;12.094;2024-03-23T01:24:23;38.33;;;29.37;;
18286;SDS011;9269;50.838;12.094;2024-03-23T01:26:51;40.73;;;29.87;;
18286;SDS011;9269;50.838;12.094;2024-03-23T01:29:18;40.17;;;28.80;;
18286;SDS011;9269;50.838;12.094;2024-03-23T01:31:46;39.53;;;29.43;;
18286;SDS011;9269;50.838;12.094;2024-03-23T01:34:12;40.63;;;30.60;;
18286;SDS011;9269;50.838;12.094;2024-03-23T01:36:39;39.03;;;28.63;;
18286;SDS011;9269;50.838;12.094;2024-03-23T01:39:06;41.83;;;29.53;;
18286;SDS011;9269;50.838;12.094;2024-03-23T01:41:35;39.87;;;28.50;;
18286;SDS011;9269;50.838;12.094;2024-03-23T01:44:03;38.90;;;29.33;;
18286;SDS011;9269;50.838;12.094;2024-03-23T01:46:34;34.77;;;25.30;;
18286;SDS011;9269;50.838;12.094;2024-03-23T01:49:01;36.13;;;27.03;;
18286;SDS011;9269;50.838;12.094;2024-03-23T01:51:30;35.60;;;26.07;;
18286;SDS011;9269;50.838;12.094;2024-03-23T01:53:57;37.40;;;28.23;;
18286;SDS011;9269;50.838;12.094;2024-03-23T01:56:28;39.20;;;26.97;;
18286;SDS011;9269;50.838;12.094;2024-03-23T01:58:55;38.27;;;28.37;;
18286;SDS011;9269;50.838;12.094;2024-03-23T02:01:23;37.30;;;27.47;;
18286;SDS011;9269;50.838;12.094;2024-03-23T02:03:51;39.57;;;28.27;;
18286;SDS011;9269;50.838;12.094;2024-03-23T02:06:18;39.83;;;28.03;;
18286;SDS011;9269;50.838;12.094;2024-03-23T02:08:45;40.53;;;26.53;;
18286;SDS011;9269;50.838;12.094;2024-03-23T02:11:12;42.33;;;29.80;;
18286;SDS011;9269;50.838;12.094;2024-03-23T02:13:39;44.23;;;28.67;;
18286;SDS011;9269;50.838;12.094;2024-03-23T02:16:06;68.80;;;35.27;;
18286;SDS011;9269;50.838;12.094;2024-03-23T02:18:33;50.23;;;32.33;;
18286;SDS011;9269;50.838;12.094;2024-03-23T02:21:02;48.80;;;32.80;;
18286;SDS011;9269;50.838;12.094;2024-03-23T02:23:30;46.37;;;29.93;;
18286;SDS011;9269;50.838;12.094;2024-03-23T02:25:58;46.97;;;30.53;;
18286;SDS011;9269;50.838;12.094;2024-03-23T02:28:24;44.13;;;29.87;;
18286;SDS011;9269;50.838;12.094;2024-03-23T02:30:52;43.77;;;28.43;;
18286;SDS011;9269;50.838;12.094;2024-03-23T02:33:18;50.57;;;30.50;;
18286;SDS011;9269;50.838;12.094;2024-03-23T02:35:46;59.13;;;32.07;;
18286;SDS011;9269;50.838;12.094;2024-03-23T02:38:13;44.00;;;30.33;;
18286;SDS011;9269;50.838;12.094;2024-03-23T02:40:42;42.57;;;29.50;;
18286;SDS011;9269;50.838;12.094;2024-03-23T02:43:09;52.20;;;31.13;;
18286;SDS011;9269;50.838;12.094;2024-03-23T02:45:37;47.50;;;30.37;;
18286;SDS011;9269;50.838;12.094;2024-03-23T02:48:03;49.10;;;32.07;;
18286;SDS011;9269;50.838;12.094;2024-03-23T02:50:31;61.27;;;33.27;;
18286;SDS011;9269;50.838;12.094;2024-03-23T02:52:58;50.43;;;33.40;;
18286;SDS011;9269;50.838;12.094;2024-03-23T02:55:25;48.97;;;31.27;;
18286;SDS011;9269;50.838;12.094;2024-03-23T02:57:53;51.63;;;31.03;;
18286;SDS011;9269;50.838;12.094;2024-03-23T03:00:20;57.13;;;33.07;;
18286;SDS011;9269;50.838;12.094;2024-03-23T03:02:47;50.50;;;31.73;;
18286;SDS011;9269;50.838;12.094;2024-03-23T03:05:15;47.10;;;31.30;;
18286;SDS011;9269;50.838;12.094;2024-03-23T03:07:51;39.50;;;27.50;;
18286;SDS011;9269;50.838;12.094;2024-03-23T03:10:28;45.87;;;29.70;;
18286;SDS011;9269;50.838;12.094;2024-03-23T03:12:58;52.77;;;31.60;;
18286;SDS011;9269;50.838;12.094;2024-03-23T03:15:25;49.27;;;29.63;;
18286;SDS011;9269;50.838;12.094;2024-03-23T03:17:52;44.37;;;30.23;;
18286;SDS011;9269;50.838;12.094;2024-03-23T03:20:19;42.93;;;30.13;;
18286;SDS011;9269;50.838;12.094;2024-03-23T03:22:47;45.53;;;30.80;;
18286;SDS011;9269;50.838;12.094;2024-03-23T03:25:15;54.23;;;30.27;;
18286;SDS011;9269;50.838;12.094;2024-03-23T03:27:41;43.63;;;30.43;;
18286;SDS011;9269;50.838;12.094;2024-03-23T03:30:11;41.87;;;28.90;;
18286;SDS011;9269;50.838;12.094;2024-03-23T03:32:38;41.40;;;28.83;;
18286;SDS011;9269;50.838;12.094;2024-03-23T03:35:05;44.33;;;29.63;;
18286;SDS011;9269;50.838;12.094;2024-03-23T03:37:32;47.67;;;31.27;;
18286;SDS011;9269;50.838;12.094;2024-03-23T03:40:00;44.30;;;30.23;;
18286;SDS011;9269;50.838;12.094;2024-03-23T03:42:26;43.73;;;30.57;;
18286;SDS011;9269;50.838;12.094;2024-03-23T03:44:54;39.17;;;27.53;;
18286;SDS011;9269;50.838;12.094;2024-03-23T03:47:22;40.30;;;28.60;;
18286;SDS011;9269;50.838;12.094;2024-03-23T03:49:49;41.87;;;27.10;;
18286;SDS011;9269;50.838;12.094;2024-03-23T03:52:15;43.23;;;28.40;;
18286;SDS011;9269;50.838;12.094;2024-03-23T03:54:43;45.37;;;28.97;;
18286;SDS011;9269;50.838;12.094;2024-03-23T03:57:09;41.47;;;27.47;;
18286;SDS011;9269;50.838;12.094;2024-03-23T03:59:37;40.90;;;27.53;;
18286;SDS011;9269;50.838;12.094;2024-03-23T04:02:03;39.77;;;27.60;;
18286;SDS011;9269;50.838;12.094;2024-03-23T04:04:32;39.47;;;25.93;;
18286;SDS011;9269;50.838;12.094;2024-03-23T04:06:59;37.27;;;26.90;;
18286;SDS011;9269;50.838;12.094;2024-03-23T04:09:26;36.03;;;26.30;;
18286;SDS011;9269;50.838;12.094;2024-03-23T04:11:53;37.50;;;26.10;;
18286;SDS011;9269;50.838;12.094;2024-03-23T04:14:20;37.47;;;26.47;;
18286;SDS011;9269;50.838;12.094;2024-03-23T04:16:47;35.67;;;25.07;;
18286;SDS011;9269;50.838;12.094;2024-03-23T04:19:15;38.07;;;26.23;;
18286;SDS011;9269;50.838;12.094;2024-03-23T04:21:42;34.73;;;25.10;;
18286;SDS011;9269;50.838;12.094;2024-03-23T04:24:10;37.03;;;27.50;;
18286;SDS011;9269;50.838;12.094;2024-03-23T04:26:40;36.77;;;26.60;;
18286;SDS011;9269;50.838;12.094;2024-03-23T04:29:08;39.33;;;26.93;;
18286;SDS011;9269;50.838;12.094;2024-03-23T04:31:34;37.53;;;26.17;;
18286;SDS011;9269;50.838;12.094;2024-03-23T04:34:02;38.67;;;28.37;;
18286;SDS011;9269;50.838;12.094;2024-03-23T04:36:28;40.23;;;28.47;;
18286;SDS011;9269;50.838;12.094;2024-03-23T04:38:58;35.47;;;26.00;;
18286;SDS011;9269;50.838;12.094;2024-03-23T04:41:26;38.27;;;26.40;;
18286;SDS011;9269;50.838;12.094;2024-03-23T04:43:54;42.70;;;29.77;;
18286;SDS011;9269;50.838;12.094;2024-03-23T04:46:21;38.37;;;26.87;;
18286;SDS011;9269;50.838;12.094;2024-03-23T04:48:48;36.70;;;27.63;;
18286;SDS011;9269;50.838;12.094;2024-03-23T04:51:22;40.60;;;28.10;;
18286;SDS011;9269;50.838;12.094;2024-03-23T04:53:50;36.83;;;26.77;;
18286;SDS011;9269;50.838;12.094;2024-03-23T04:56:19;40.40;;;28.37;;
18286;SDS011;9269;50.838;12.094;2024-03-23T04:58:46;40.67;;;26.97;;
18286;SDS011;9269;50.838;12.094;2024-03-23T05:01:13;35.53;;;26.33;;
18286;SDS011;9269;50.838;12.094;2024-03-23T05:03:41;39.40;;;26.83;;
18286;SDS011;9269;50.838;12.094;2024-03-23T05:06:07;38.17;;;26.43;;
18286;SDS011;9269;50.838;12.094;2024-03-23T05:08:35;38.30;;;26.00;;
18286;SDS011;9269;50.838;12.094;2024-03-23T05:11:02;38.73;;;27.20;;
18286;SDS011;9269;50.838;12.094;2024-03-23T05:13:32;36.53;;;27.13;;
18286;SDS011;9269;50.838;12.094;2024-03-23T05:15:59;39.03;;;26.73;;
18286;SDS011;9269;50.838;12.094;2024-03-23T05:18:26;36.53;;;26.87;;
18286;SDS011;9269;50.838;12.094;2024-03-23T05:20:55;38.73;;;26.07;;
18286;SDS011;9269;50.838;12.094;2024-03-23T05:23:23;40.80;;;26.20;;
18286;SDS011;9269;50.838;12.094;2024-03-23T05:25:49;38.80;;;25.83;;
18286;SDS011;9269;50.838;12.094;2024-03-23T05:28:17;37.47;;;25.93;;
18286;SDS011;9269;50.838;12.094;2024-03-23T05:30:50;34.67;;;24.70;;
18286;SDS011;9269;50.838;12.094;2024-03-23T05:33:18;36.50;;;24.30;;
18286;SDS011;9269;50.838;12.094;2024-03-23T05:35:45;31.47;;;23.27;;
18286;SDS011;9269;50.838;12.094;2024-03-23T05:38:13;35.03;;;25.27;;
18286;SDS011;9269;50.838;12.094;2024-03-23T05:40:40;37.30;;;26.20;;
18286;SDS011;9269;50.838;12.094;2024-03-23T05:43:07;36.73;;;26.50;;
18286;SDS011;9269;50.838;12.094;2024-03-23T05:45:35;35.40;;;25.30;;
18286;SDS011;9269;50.838;12.094;2024-03-23T05:48:03;36.93;;;25.10;;
18286;SDS011;9269;50.838;12.094;2024-03-23T05:50:30;37.77;;;25.27;;
18286;SDS011;9269;50.838;12.094;2024-03-23T05:52:59;34.77;;;24.67;;
18286;SDS011;9269;50.838;12.094;2024-03-23T05:55:26;34.60;;;25.17;;
18286;SDS011;9269;50.838;12.094;2024-03-23T05:57:54;35.73;;;24.77;;
18286;SDS011;9269;50.838;12.094;2024-03-23T06:00:21;32.43;;;23.53;;
18286;SDS011;9269;50.838;12.094;2024-03-23T06:02:48;31.83;;;24.17;;
18286;SDS011;9269;50.838;12.094;2024-03-23T06:05:16;29.67;;;22.33;;
18286;SDS011;9269;50.838;12.094;2024-03-23T06:07:43;31.33;;;22.87;;
18286;SDS011;9269;50.838;12.094;2024-03-23T06:10:11;29.40;;;22.90;;
18286;SDS011;9269;50.838;12.094;2024-03-23T06:13:07;31.40;;;22.37;;
18286;SDS011;9269;50.838;12.094;2024-03-23T06:15:44;28.10;;;21.33;;
18286;SDS011;9269;50.838;12.094;2024-03-23T06:18:25;28.57;;;20.80;;
18286;SDS011;9269;50.838;12.094;2024-03-23T06:20:59;26.03;;;19.33;;
18286;SDS011;9269;50.838;12.094;2024-03-23T06:23:39;25.37;;;18.53;;
18286;SDS011;9269;50.838;12.094;2024-03-23T06:26:21;26.30;;;19.23;;
18286;SDS011;9269;50.838;12.094;2024-03-23T06:29:06;24.53;;;19.40;;
18286;SDS011;9269;50.838;12.094;2024-03-23T06:31:41;23.77;;;19.07;;
18286;SDS011;9269;50.838;12.094;2024-03-23T06:34:20;27.17;;;20.13;;
18286;SDS011;9269;50.838;12.094;2024-03-23T06:36:53;27.07;;;20.53;;
18286;SDS011;9269;50.838;12.094;2024-03-23T06:42:49;26.67;;;20.63;;
18286;SDS011;9269;50.838;12.094;2024-03-23T06:45:56;26.87;;;20.93;;
18286;SDS011;9269;50.838;12.094;2024-03-23T06:48:36;24.70;;;18.43;;
18286;SDS011;9269;50.838;12.094;2024-03-23T06:51:19;28.70;;;20.57;;
18286;SDS011;9269;50.838;12.094;2024-03-23T06:55:02;26.23;;;19.73;;
18286;SDS011;9269;50.838;12.094;2024-03-23T06:58:25;27.37;;;19.47;;
18286;SDS011;9269;50.838;12.094;2024-03-23T07:01:24;25.90;;;19.73;;
18286;SDS011;9269;50.838;12.094;2024-03-23T07:03:50;27.43;;;20.53;;
18286;SDS011;9269;50.838;12.094;2024-03-23T07:06:18;27.10;;;19.83;;
18286;SDS011;9269;50.838;12.094;2024-03-23T07:08:44;25.97;;;19.93;;
18286;SDS011;9269;50.838;12.094;2024-03-23T07:11:16;24.37;;;20.17;;
18286;SDS011;9269;50.838;12.094;2024-03-23T07:13:44;22.67;;;18.07;;
18286;SDS011;9269;50.838;12.094;2024-03-23T07:16:12;25.50;;;20.10;;
18286;SDS011;9269;50.838;12.094;2024-03-23T07:18:39;24.33;;;20.07;;
18286;SDS011;9269;50.838;12.094;2024-03-23T07:21:06;28.77;;;21.87;;
18286;SDS011;9269;50.838;12.094;2024-03-23T07:23:33;26.53;;;19.87;;
18286;SDS011;9269;50.838;12.094;2024-03-23T07:26:01;27.93;;;21.17;;
18286;SDS011;9269;50.838;12.094;2024-03-23T07:28:31;31.77;;;23.43;;
18286;SDS011;9269;50.838;12.094;2024-03-23T07:31:03;25.50;;;20.47;;
18286;SDS011;9269;50.838;12.094;2024-03-23T07:33:30;25.23;;;19.57;;
18286;SDS011;9269;50.838;12.094;2024-03-23T07:35:58;22.83;;;18.83;;
18286;SDS011;9269;50.838;12.094;2024-03-23T07:38:26;21.10;;;17.80;;
18286;SDS011;9269;50.838;12.094;2024-03-23T07:41:04;20.73;;;17.50;;
18286;SDS011;9269;50.838;12.094;2024-03-23T07:43:32;22.67;;;17.67;;
18286;SDS011;9269;50.838;12.094;2024-03-23T07:45:59;21.03;;;18.57;;
18286;SDS011;9269;50.838;12.094;2024-03-23T07:48:27;20.13;;;17.03;;
18286;SDS011;9269;50.838;12.094;2024-03-23T07:50:58;19.53;;;16.77;;
18286;SDS011;9269;50.838;12.094;2024-03-23T07:53:26;18.00;;;16.07;;
18286;SDS011;9269;50.838;12.094;2024-03-23T07:55:56;17.33;;;15.40;;
18286;SDS011;9269;50.838;12.094;2024-03-23T07:58:25;18.50;;;16.53;;
18286;SDS011;9269;50.838;12.094;2024-03-23T08:00:54;18.40;;;16.30;;
18286;SDS011;9269;50.838;12.094;2024-03-23T08:03:21;18.23;;;16.00;;
18286;SDS011;9269;50.838;12.094;2024-03-23T08:05:48;18.00;;;16.10;;
18286;SDS011;9269;50.838;12.094;2024-03-23T08:08:15;16.93;;;15.13;;
18286;SDS011;9269;50.838;12.094;2024-03-23T08:10:48;20.07;;;16.10;;
18286;SDS011;9269;50.838;12.094;2024-03-23T08:13:16;11.30;;;9.43;;
18286;SDS011;9269;50.838;12.094;2024-03-23T08:15:42;8.37;;;7.20;;
18286;SDS011;9269;50.838;12.094;2024-03-23T08:18:11;3.40;;;3.10;;
18286;SDS011;9269;50.838;12.094;2024-03-23T08:20:38;3.33;;;2.90;;
18286;SDS011;9269;50.838;12.094;2024-03-23T08:23:05;3.50;;;2.23;;
18286;SDS011;9269;50.838;12.094;2024-03-23T08:25:32;2.30;;;2.10;;
18286;SDS011;9269;50.838;12.094;2024-03-23T08:28:01;2.70;;;2.50;;
18286;SDS011;9269;50.838;12.094;2024-03-23T08:30:28;3.80;;;3.33;;
18286;SDS011;9269;50.838;12.094;2024-03-23T08:32:56;2.40;;;2.20;;
18286;SDS011;9269;50.838;12.094;2024-03-23T08:35:24;2.10;;;1.90;;
18286;SDS011;9269;50.838;12.094;2024-03-23T08:37:51;2.30;;;2.10;;
18286;SDS011;9269;50.838;12.094;2024-03-23T08:40:18;1.63;;;1.53;;
18286;SDS011;9269;50.838;12.094;2024-03-23T08:42:45;1.30;;;1.20;;
18286;SDS011;9269;50.838;12.094;2024-03-23T08:45:11;1.10;;;1.10;;
18286;SDS011;9269;50.838;12.094;2024-03-23T08:47:39;0.77;;;0.77;;
18286;SDS011;9269;50.838;12.094;2024-03-23T08:50:05;0.70;;;0.70;;
18286;SDS011;9269;50.838;12.094;2024-03-23T08:52:34;0.90;;;0.47;;
18286;SDS011;9269;50.838;12.094;2024-03-23T08:55:01;0.33;;;0.33;;
18286;SDS011;9269;50.838;12.094;2024-03-23T08:57:30;0.80;;;0.40;;
18286;SDS011;9269;50.838;12.094;2024-03-23T08:59:56;0.53;;;0.50;;
18286;SDS011;9269;50.838;12.094;2024-03-23T09:02:24;0.77;;;0.70;;
18286;SDS011;9269;50.838;12.094;2024-03-23T09:04:51;1.37;;;0.60;;
18286;SDS011;9269;50.838;12.094;2024-03-23T09:07:17;0.70;;;0.70;;
18286;SDS011;9269;50.838;12.094;2024-03-23T09:09:46;0.77;;;0.77;;
18286;SDS011;9269;50.838;12.094;2024-03-23T09:12:14;0.70;;;0.70;;
18286;SDS011;9269;50.838;12.094;2024-03-23T09:14:42;0.70;;;0.70;;
18286;SDS011;9269;50.838;12.094;2024-03-23T09:17:09;0.70;;;0.70;;
18286;SDS011;9269;50.838;12.094;2024-03-23T09:19:36;0.50;;;0.50;;
18286;SDS011;9269;50.838;12.094;2024-03-23T09:22:03;0.80;;;0.50;;
18286;SDS011;9269;50.838;12.094;2024-03-23T09:24:31;0.60;;;0.60;;
18286;SDS011;9269;50.838;12.094;2024-03-23T09:26:59;1.03;;;0.90;;
18286;SDS011;9269;50.838;12.094;2024-03-23T09:29:27;1.10;;;1.03;;
18286;SDS011;9269;50.838;12.094;2024-03-23T09:31:55;1.20;;;1.13;;
18286;SDS011;9269;50.838;12.094;2024-03-23T09:34:22;1.30;;;1.27;;
18286;SDS011;9269;50.838;12.094;2024-03-23T09:36:50;1.10;;;1.10;;
18286;SDS011;9269;50.838;12.094;2024-03-23T09:39:18;0.90;;;0.90;;
18286;SDS011;9269;50.838;12.094;2024-03-23T09:41:45;0.80;;;0.80;;
18286;SDS011;9269;50.838;12.094;2024-03-23T09:44:14;0.90;;;0.73;;
18286;SDS011;9269;50.838;12.094;2024-03-23T09:46:42;1.00;;;0.77;;
18286;SDS011;9269;50.838;12.094;2024-03-23T09:49:09;0.97;;;0.80;;
18286;SDS011;9269;50.838;12.094;2024-03-23T09:51:38;0.77;;;0.70;;
18286;SDS011;9269;50.838;12.094;2024-03-23T09:54:06;1.00;;;1.00;;
18286;SDS011;9269;50.838;12.094;2024-03-23T09:56:33;1.27;;;1.27;;
18286;SDS011;9269;50.838;12.094;2024-03-23T09:59:01;1.57;;;1.40;;
18286;SDS011;9269;50.838;12.094;2024-03-23T10:01:30;1.70;;;1.60;;
18286;SDS011;9269;50.838;12.094;2024-03-23T10:03:58;2.70;;;2.27;;
18286;SDS011;9269;50.838;12.094;2024-03-23T10:06:25;1.83;;;1.70;;
18286;SDS011;9269;50.838;12.094;2024-03-23T10:08:52;1.97;;;1.40;;
18286;SDS011;9269;50.838;12.094;2024-03-23T10:11:20;1.37;;;1.30;;
18286;SDS011;9269;50.838;12.094;2024-03-23T10:13:48;0.77;;;0.77;;
18286;SDS011;9269;50.838;12.094;2024-03-23T10:16:21;0.80;;;0.80;;
18286;SDS011;9269;50.838;12.094;2024-03-23T10:18:51;0.60;;;0.60;;
18286;SDS011;9269;50.838;12.094;2024-03-23T10:21:18;0.60;;;0.60;;
18286;SDS011;9269;50.838;12.094;2024-03-23T10:23:45;0.60;;;0.53;;
18286;SDS011;9269;50.838;12.094;2024-03-23T10:26:13;0.50;;;0.43;;
18286;SDS011;9269;50.838;12.094;2024-03-23T10:28:50;0.67;;;0.60;;
18286;SDS011;9269;50.838;12.094;2024-03-23T10:31:24;0.67;;;0.67;;
18286;SDS011;9269;50.838;12.094;2024-03-23T10:33:53;0.83;;;0.63;;
18286;SDS011;9269;50.838;12.094;2024-03-23T10:36:20;1.03;;;0.93;;
18286;SDS011;9269;50.838;12.094;2024-03-23T10:38:49;0.63;;;0.60;;
18286;SDS011;9269;50.838;12.094;2024-03-23T10:41:16;0.50;;;0.50;;
18286;SDS011;9269;50.838;12.094;2024-03-23T10:43:45;0.67;;;0.53;;
18286;SDS011;9269;50.838;12.094;2024-03-23T10:46:12;0.67;;;0.50;;
18286;SDS011;9269;50.838;12.094;2024-03-23T10:48:40;1.07;;;0.80;;
18286;SDS011;9269;50.838;12.094;2024-03-23T10:51:08;0.80;;;0.80;;
18286;SDS011;9269;50.838;12.094;2024-03-23T10:53:49;1.20;;;1.10;;
18286;SDS011;9269;50.838;12.094;2024-03-23T10:56:19;1.00;;;0.90;;
18286;SDS011;9269;50.838;12.094;2024-03-23T10:58:48;1.00;;;0.80;;
18286;SDS011;9269;50.838;12.094;2024-03-23T11:01:15;1.13;;;1.03;;
18286;SDS011;9269;50.838;12.094;2024-03-23T11:03:44;1.87;;;1.33;;
18286;SDS011;9269;50.838;12.094;2024-03-23T11:09:10;2.10;;;1.50;;
18286;SDS011;9269;50.838;12.094;2024-03-23T11:12:27;1.90;;;1.30;;
18286;SDS011;9269;50.838;12.094;2024-03-23T11:14:57;1.43;;;1.33;;
18286;SDS011;9269;50.838;12.094;2024-03-23T11:17:27;1.73;;;1.20;;
18286;SDS011;9269;50.838;12.094;2024-03-23T11:19:55;3.00;;;1.20;;
18286;SDS011;9269;50.838;12.094;2024-03-23T11:22:39;1.43;;;1.30;;
18286;SDS011;9269;50.838;12.094;2024-03-23T11:25:17;2.30;;;1.30;;
18286;SDS011;9269;50.838;12.094;2024-03-23T11:27:48;2.30;;;1.33;;
18286;SDS011;9269;50.838;12.094;2024-03-23T11:30:17;1.77;;;1.27;;
18286;SDS011;9269;50.838;12.094;2024-03-23T11:32:50;3.63;;;2.07;;
18286;SDS011;9269;50.838;12.094;2024-03-23T11:38:06;1.47;;;1.23;;
18286;SDS011;9269;50.838;12.094;2024-03-23T11:40:35;2.43;;;1.67;;
18286;SDS011;9269;50.838;12.094;2024-03-23T11:43:04;3.10;;;1.90;;
18286;SDS011;9269;50.838;12.094;2024-03-23T11:45:35;3.83;;;2.00;;
18286;SDS011;9269;50.838;12.094;2024-03-23T11:48:07;4.20;;;2.27;;
18286;SDS011;9269;50.838;12.094;2024-03-23T11:50:36;4.37;;;2.20;;
18286;SDS011;9269;50.838;12.094;2024-03-23T11:53:14;5.43;;;2.00;;
18286;SDS011;9269;50.838;12.094;2024-03-23T11:55:45;2.53;;;1.80;;
18286;SDS011;9269;50.838;12.094;2024-03-23T11:58:13;3.77;;;2.30;;
18286;SDS011;9269;50.838;12.094;2024-03-23T12:00:40;3.20;;;2.17;;
18286;SDS011;9269;50.838;12.094;2024-03-23T12:03:08;4.03;;;1.90;;
18286;SDS011;9269;50.838;12.094;2024-03-23T12:05:36;2.90;;;2.20;;
18286;SDS011;9269;50.838;12.094;2024-03-23T12:08:21;4.60;;;2.50;;
18286;SDS011;9269;50.838;12.094;2024-03-23T12:10:51;6.30;;;2.73;;
18286;SDS011;9269;50.838;12.094;2024-03-23T12:13:20;3.90;;;1.97;;
18286;SDS011;9269;50.838;12.094;2024-03-23T12:15:49;5.60;;;2.90;;
18286;SDS011;9269;50.838;12.094;2024-03-23T12:18:17;4.50;;;2.90;;
18286;SDS011;9269;50.838;12.094;2024-03-23T12:20:49;7.40;;;2.93;;
18286;SDS011;9269;50.838;12.094;2024-03-23T12:23:16;4.73;;;2.37;;
18286;SDS011;9269;50.838;12.094;2024-03-23T12:25:43;4.60;;;3.17;;
18286;SDS011;9269;50.838;12.094;2024-03-23T12:28:12;6.33;;;3.13;;
18286;SDS011;9269;50.838;12.094;2024-03-23T12:30:39;7.53;;;4.00;;
18286;SDS011;9269;50.838;12.094;2024-03-23T12:33:06;7.90;;;4.47;;
18286;SDS011;9269;50.838;12.094;2024-03-23T12:35:33;5.67;;;3.40;;
18286;SDS011;9269;50.838;12.094;2024-03-23T12:38:01;4.93;;;2.70;;
18286;SDS011;9269;50.838;12.094;2024-03-23T12:40:27;5.57;;;3.00;;
18286;SDS011;9269;50.838;12.094;2024-03-23T12:42:55;5.57;;;3.43;;
18286;SDS011;9269;50.838;12.094;2024-03-23T12:45:23;7.63;;;2.87;;
18286;SDS011;9269;50.838;12.094;2024-03-23T12:47:50;5.13;;;2.87;;
18286;SDS011;9269;50.838;12.094;2024-03-23T12:50:19;6.97;;;3.47;;
18286;SDS011;9269;50.838;12.094;2024-03-23T12:52:47;7.70;;;3.47;;
18286;SDS011;9269;50.838;12.094;2024-03-23T12:55:14;5.03;;;3.33;;
18286;SDS011;9269;50.838;12.094;2024-03-23T12:57:41;4.53;;;3.17;;
18286;SDS011;9269;50.838;12.094;2024-03-23T13:00:08;7.77;;;3.40;;
18286;SDS011;9269;50.838;12.094;2024-03-23T13:02:38;7.60;;;3.73;;
18286;SDS011;9269;50.838;12.094;2024-03-23T13:05:05;6.67;;;2.97;;
18286;SDS011;9269;50.838;12.094;2024-03-23T13:07:34;4.00;;;3.13;;
18286;SDS011;9269;50.838;12.094;2024-03-23T13:10:03;7.13;;;3.20;;
18286;SDS011;9269;50.838;12.094;2024-03-23T13:12:31;6.23;;;3.30;;
18286;SDS011;9269;50.838;12.094;2024-03-23T13:14:58;7.53;;;5.17;;
18286;SDS011;9269;50.838;12.094;2024-03-23T13:17:28;11.07;;;4.73;;
18286;SDS011;9269;50.838;12.094;2024-03-23T13:19:56;9.30;;;5.30;;
18286;SDS011;9269;50.838;12.094;2024-03-23T13:22:24;8.00;;;5.10;;
18286;SDS011;9269;50.838;12.094;2024-03-23T13:24:50;8.73;;;5.17;;
18286;SDS011;9269;50.838;12.094;2024-03-23T13:27:18;7.33;;;4.80;;
18286;SDS011;9269;50.838;12.094;2024-03-23T13:29:45;7.23;;;4.70;;
18286;SDS011;9269;50.838;12.094;2024-03-23T13:32:13;7.17;;;4.20;;
18286;SDS011;9269;50.838;12.094;2024-03-23T13:34:39;7.17;;;4.70;;
18286;SDS011;9269;50.838;12.094;2024-03-23T13:37:08;7.57;;;4.67;;
18286;SDS011;9269;50.838;12.094;2024-03-23T13:39:36;7.30;;;3.83;;
18286;SDS011;9269;50.838;12.094;2024-03-23T13:42:04;8.90;;;4.60;;
18286;SDS011;9269;50.838;12.094;2024-03-23T13:44:30;6.30;;;4.07;;
18286;SDS011;9269;50.838;12.094;2024-03-23T13:46:58;4.60;;;3.60;;
18286;SDS011;9269;50.838;12.094;2024-03-23T13:49:25;7.83;;;4.53;;
18286;SDS011;9269;50.838;12.094;2024-03-23T13:51:54;5.30;;;4.27;;
18286;SDS011;9269;50.838;12.094;2024-03-23T13:54:24;4.70;;;3.50;;
18286;SDS011;9269;50.838;12.094;2024-03-23T13:56:52;4.33;;;2.77;;
18286;SDS011;9269;50.838;12.094;2024-03-23T13:59:20;3.43;;;2.37;;
18286;SDS011;9269;50.838;12.094;2024-03-23T14:01:49;3.77;;;2.33;;
18286;SDS011;9269;50.838;12.094;2024-03-23T14:04:17;4.40;;;2.40;;
18286;SDS011;9269;50.838;12.094;2024-03-23T14:06:46;4.40;;;2.50;;
18286;SDS011;9269;50.838;12.094;2024-03-23T14:09:13;5.43;;;2.27;;
18286;SDS011;9269;50.838;12.094;2024-03-23T14:11:48;3.07;;;2.07;;
18286;SDS011;9269;50.838;12.094;2024-03-23T14:14:16;3.67;;;2.70;;
18286;SDS011;9269;50.838;12.094;2024-03-23T14:16:44;3.50;;;2.40;;
18286;SDS011;9269;50.838;12.094;2024-03-23T14:19:11;3.90;;;2.23;;
18286;SDS011;9269;50.838;12.094;2024-03-23T14:21:39;3.23;;;2.40;;
18286;SDS011;9269;50.838;12.094;2024-03-23T14:24:05;2.80;;;2.60;;
18286;SDS011;9269;50.838;12.094;2024-03-23T14:26:35;4.37;;;2.20;;
18286;SDS011;9269;50.838;12.094;2024-03-23T14:29:02;3.17;;;2.30;;
18286;SDS011;9269;50.838;12.094;2024-03-23T14:31:30;3.37;;;2.47;;
18286;SDS011;9269;50.838;12.094;2024-03-23T14:34:06;4.33;;;2.30;;
18286;SDS011;9269;50.838;12.094;2024-03-23T14:36:34;2.33;;;2.13;;
18286;SDS011;9269;50.838;12.094;2024-03-23T14:39:03;4.23;;;2.40;;
18286;SDS011;9269;50.838;12.094;2024-03-23T14:41:31;2.80;;;2.47;;
18286;SDS011;9269;50.838;12.094;2024-03-23T14:43:57;3.03;;;2.20;;
18286;SDS011;9269;50.838;12.094;2024-03-23T14:46:26;3.10;;;2.00;;
18286;SDS011;9269;50.838;12.094;2024-03-23T14:48:54;3.57;;;2.20;;
18286;SDS011;9269;50.838;12.094;2024-03-23T14:51:21;3.63;;;2.10;;
18286;SDS011;9269;50.838;12.094;2024-03-23T14:53:48;3.40;;;2.53;;
18286;SDS011;9269;50.838;12.094;2024-03-23T14:56:15;3.93;;;2.60;;
18286;SDS011;9269;50.838;12.094;2024-03-23T14:58:43;3.23;;;2.30;;
18286;SDS011;9269;50.838;12.094;2024-03-23T15:01:11;5.10;;;2.47;;
18286;SDS011;9269;50.838;12.094;2024-03-23T15:03:40;7.47;;;3.50;;
18286;SDS011;9269;50.838;12.094;2024-03-23T15:06:09;5.50;;;3.53;;
18286;SDS011;9269;50.838;12.094;2024-03-23T15:08:36;7.80;;;2.93;;
18286;SDS011;9269;50.838;12.094;2024-03-23T15:11:03;4.03;;;2.20;;
18286;SDS011;9269;50.838;12.094;2024-03-23T15:13:31;3.47;;;2.60;;
18286;SDS011;9269;50.838;12.094;2024-03-23T15:15:58;5.00;;;2.50;;
18286;SDS011;9269;50.838;12.094;2024-03-23T15:18:25;3.17;;;2.13;;
18286;SDS011;9269;50.838;12.094;2024-03-23T15:20:56;5.43;;;2.07;;
18286;SDS011;9269;50.838;12.094;2024-03-23T15:23:23;2.77;;;1.70;;
18286;SDS011;9269;50.838;12.094;2024-03-23T15:25:55;1.87;;;1.30;;
18286;SDS011;9269;50.838;12.094;2024-03-23T15:28:22;2.13;;;1.70;;
18286;SDS011;9269;50.838;12.094;2024-03-23T15:30:52;2.00;;;1.47;;
18286;SDS011;9269;50.838;12.094;2024-03-23T15:33:19;2.63;;;1.63;;
18286;SDS011;9269;50.838;12.094;2024-03-23T15:35:46;1.60;;;1.50;;
18286;SDS011;9269;50.838;12.094;2024-03-23T15:38:15;1.60;;;1.50;;
18286;SDS011;9269;50.838;12.094;2024-03-23T15:40:50;2.03;;;1.83;;
18286;SDS011;9269;50.838;12.094;2024-03-23T15:43:18;1.50;;;1.40;;
18286;SDS011;9269;50.838;12.094;2024-03-23T15:45:44;1.73;;;1.63;;
18286;SDS011;9269;50.838;12.094;2024-03-23T15:48:20;1.73;;;1.63;;
18286;SDS011;9269;50.838;12.094;2024-03-23T15:50:50;2.83;;;1.90;;